Time;durP1;ratioP1;P1;durP2;ratioP2;P2;SDS_P1;SDS_P2;PMS_P1;PMS_P2;Temp;Humidity;BMP_temperature;BMP_pressure;BME280_temperature;BME280_humidity;BME280_pressure;Samples;Min_cycle;Max_cycle;Signal;HPM_P1;HPM_P2
2023/05/16 00:00:57;;;;;;;11.73;8.53;;;11.60;99.90;;;;;;5092398;28;20638;-76
2023/05/16 00:03:22;;;;;;;11.73;9.03;;;11.50;99.90;;;;;;5108050;28;20185;-75
2023/05/16 00:05:49;;;;;;;13.33;9.40;;;11.60;99.90;;;;;;5111735;28;20232;-75
2023/05/16 00:08:15;;;;;;;12.30;7.93;;;11.60;99.90;;;;;;5107832;28;20193;-76
2023/05/16 00:10:40;;;;;;;8.53;5.37;;;11.60;99.90;;;;;;5092393;28;20228;-75
2023/05/16 00:13:06;;;;;;;7.50;4.30;;;11.50;99.90;;;;;;5106199;28;20204;-75
2023/05/16 00:15:32;;;;;;;5.30;3.20;;;11.50;99.90;;;;;;5093212;28;20209;-76
2023/05/16 00:17:58;;;;;;;4.43;2.70;;;11.40;99.90;;;;;;5094497;28;20209;-76
2023/05/16 00:20:25;;;;;;;3.27;2.77;;;11.30;99.90;;;;;;5112628;28;20602;-76
2023/05/16 00:22:51;;;;;;;7.87;3.97;;;11.30;99.90;;;;;;5111503;28;20185;-76
2023/05/16 00:25:16;;;;;;;6.67;4.30;;;11.20;99.90;;;;;;5111401;28;20196;-75
2023/05/16 00:27:42;;;;;;;8.10;4.00;;;11.20;99.90;;;;;;5112621;28;20646;-75
2023/05/16 00:30:08;;;;;;;5.40;3.50;;;11.20;99.90;;;;;;5112539;28;20178;-75
2023/05/16 00:32:35;;;;;;;5.67;3.70;;;11.10;99.90;;;;;;5111770;28;20197;-75
2023/05/16 00:35:00;;;;;;;8.13;3.97;;;11.10;99.90;;;;;;5115821;28;20641;-75
2023/05/16 00:37:26;;;;;;;4.30;3.80;;;11.10;99.90;;;;;;5116349;28;20248;-75
2023/05/16 00:39:52;;;;;;;5.90;3.47;;;11.10;99.90;;;;;;5116353;28;20291;-75
2023/05/16 00:42:20;;;;;;;7.50;3.80;;;11.00;99.90;;;;;;5116374;28;20571;-74
2023/05/16 00:44:47;;;;;;;6.00;3.40;;;11.00;99.90;;;;;;5115068;28;20193;-75
2023/05/16 00:47:13;;;;;;;9.10;4.03;;;11.00;99.90;;;;;;5116330;28;20201;-76
2023/05/16 00:49:39;;;;;;;6.80;4.17;;;11.00;99.90;;;;;;5115022;28;20634;-75
2023/05/16 00:52:05;;;;;;;8.57;4.03;;;10.90;99.90;;;;;;5116223;28;20193;-75
2023/05/16 00:54:30;;;;;;;8.10;4.33;;;11.00;99.90;;;;;;5116128;28;20193;-75
2023/05/16 00:56:56;;;;;;;9.27;5.37;;;10.90;99.90;;;;;;5116177;28;20239;-75
2023/05/16 00:59:25;;;;;;;8.57;5.37;;;10.90;99.90;;;;;;5116070;28;20193;-75
2023/05/16 01:01:51;;;;;;;9.53;5.13;;;10.90;99.90;;;;;;5115216;28;20184;-75
2023/05/16 01:04:18;;;;;;;8.30;5.50;;;10.90;99.90;;;;;;5115930;28;20276;-75
2023/05/16 01:06:44;;;;;;;8.73;4.83;;;10.80;99.90;;;;;;5114632;28;20230;-75
2023/05/16 01:09:14;;;;;;;8.27;5.30;;;10.80;99.90;;;;;;5116043;27;20168;-75
2023/05/16 01:11:46;;;;;;;7.20;4.83;;;10.80;99.90;;;;;;5114332;28;20653;-74
2023/05/16 01:14:34;;;;;;;6.50;4.80;;;10.70;99.90;;;;;;5115504;28;20636;-74
2023/05/16 01:17:26;;;;;;;9.80;6.03;;;10.70;99.90;;;;;;5114430;28;20165;-74
2023/05/16 01:20:14;;;;;;;12.43;6.00;;;10.70;99.90;;;;;;5115892;28;20245;-74
2023/05/16 01:22:53;;;;;;;9.10;4.67;;;10.70;99.90;;;;;;5115638;28;20189;-74
2023/05/16 01:25:44;;;;;;;11.77;4.73;;;10.60;99.90;;;;;;5115662;28;20337;-75
2023/05/16 01:28:11;;;;;;;7.80;4.20;;;10.60;99.90;;;;;;5115613;28;20203;-75
2023/05/16 01:30:40;;;;;;;8.00;3.30;;;10.40;99.90;;;;;;5115751;28;20170;-75
2023/05/16 01:33:05;;;;;;;8.83;3.27;;;10.20;99.90;;;;;;5115972;28;20682;-75
2023/05/16 01:35:31;;;;;;;11.93;3.43;;;10.30;99.90;;;;;;5115294;28;20189;-75
2023/05/16 01:38:18;;;;;;;12.80;3.70;;;10.30;99.90;;;;;;5115804;28;20642;-75
2023/05/16 01:41:10;;;;;;;12.77;3.30;;;10.20;99.90;;;;;;5115475;28;20606;-74
2023/05/16 01:43:44;;;;;;;7.23;2.40;;;10.20;99.90;;;;;;5115336;28;20232;-74
2023/05/16 01:46:13;;;;;;;6.00;3.07;;;10.20;99.90;;;;;;5115003;28;20192;-75
2023/05/16 01:48:51;;;;;;;11.63;2.57;;;10.10;99.90;;;;;;5115542;28;20259;-75
2023/05/16 01:51:21;;;;;;;8.00;2.97;;;10.10;99.90;;;;;;5115406;28;20164;-75
2023/05/16 01:53:48;;;;;;;9.47;3.03;;;10.00;99.90;;;;;;5115369;28;20227;-76
2023/05/16 01:56:15;;;;;;;10.07;3.43;;;10.20;99.90;;;;;;5115093;28;20267;-75
2023/05/16 01:58:43;;;;;;;8.50;3.43;;;10.10;99.90;;;;;;5114001;28;20174;-76
2023/05/16 02:01:08;;;;;;;7.17;3.70;;;10.10;99.90;;;;;;5115070;28;20170;-76
2023/05/16 02:03:34;;;;;;;12.40;4.37;;;10.10;99.90;;;;;;5115420;28;20526;-76
2023/05/16 02:06:00;;;;;;;11.90;3.60;;;10.10;99.90;;;;;;5114948;28;20685;-77
2023/05/16 02:08:26;;;;;;;19.50;4.07;;;10.00;99.90;;;;;;5115030;28;20246;-76
2023/05/16 02:10:52;;;;;;;11.17;4.00;;;10.00;99.90;;;;;;5115261;28;20165;-76
2023/05/16 02:13:18;;;;;;;13.17;4.00;;;9.90;99.90;;;;;;5114844;27;20212;-75
2023/05/16 02:15:44;;;;;;;10.90;3.77;;;9.90;99.90;;;;;;5114914;28;20306;-75
2023/05/16 02:18:10;;;;;;;15.97;3.90;;;9.90;99.90;;;;;;5114802;28;20162;-75
2023/05/16 02:20:36;;;;;;;15.80;4.13;;;9.90;99.90;;;;;;5114943;28;20633;-75
2023/05/16 02:23:02;;;;;;;17.57;3.93;;;9.90;99.90;;;;;;5114562;28;20238;-75
2023/05/16 02:25:28;;;;;;;15.50;4.10;;;9.90;99.90;;;;;;5114678;28;20506;-76
2023/05/16 02:27:53;;;;;;;11.00;3.80;;;10.00;99.90;;;;;;5114587;28;20181;-76
2023/05/16 02:30:19;;;;;;;11.73;3.93;;;9.90;99.90;;;;;;5114536;28;20180;-76
2023/05/16 02:32:44;;;;;;;16.80;4.57;;;10.00;99.90;;;;;;5114323;28;20203;-75
2023/05/16 02:35:10;;;;;;;14.80;4.23;;;9.90;99.90;;;;;;5114261;28;20186;-75
2023/05/16 02:37:36;;;;;;;19.07;4.30;;;9.90;99.90;;;;;;5114310;28;20169;-74
2023/05/16 02:40:04;;;;;;;13.47;4.30;;;9.90;99.90;;;;;;5114285;28;20165;-75
2023/05/16 02:42:31;;;;;;;15.03;4.57;;;9.90;99.90;;;;;;5112901;28;20223;-75
2023/05/16 02:44:56;;;;;;;15.00;5.00;;;9.90;99.90;;;;;;5112788;28;20197;-76
2023/05/16 02:47:22;;;;;;;14.03;4.53;;;10.00;99.90;;;;;;5114183;28;20484;-75
2023/05/16 02:49:48;;;;;;;13.20;3.97;;;9.90;99.90;;;;;;5113099;28;20181;-76
2023/05/16 02:52:13;;;;;;;18.67;4.57;;;9.90;99.90;;;;;;5114080;28;20216;-75
2023/05/16 02:54:39;;;;;;;13.83;4.00;;;10.00;99.90;;;;;;5114147;28;20684;-76
2023/05/16 02:57:04;;;;;;;15.17;4.30;;;10.00;99.90;;;;;;5113313;28;20208;-75
2023/05/16 02:59:30;;;;;;;13.40;4.43;;;10.00;99.90;;;;;;5113788;28;20646;-76
2023/05/16 03:01:55;;;;;;;15.13;4.10;;;9.90;99.90;;;;;;5113736;28;20219;-75
2023/05/16 03:04:22;;;;;;;16.70;4.70;;;9.90;99.90;;;;;;5112413;28;20189;-76
2023/05/16 03:06:49;;;;;;;20.10;3.93;;;9.90;99.90;;;;;;5113767;28;20603;-76
2023/05/16 03:09:15;;;;;;;12.13;3.70;;;9.80;99.90;;;;;;5113713;28;20176;-74
2023/05/16 03:11:41;;;;;;;11.07;3.83;;;9.80;99.90;;;;;;5113579;28;20170;-76
2023/05/16 03:14:07;;;;;;;14.93;4.13;;;9.80;99.90;;;;;;5113551;28;20165;-76
2023/05/16 03:16:32;;;;;;;15.93;3.90;;;9.70;99.90;;;;;;5113717;28;20177;-76
2023/05/16 03:18:58;;;;;;;18.63;3.60;;;9.70;99.90;;;;;;5113765;28;20166;-75
2023/05/16 03:21:24;;;;;;;14.07;3.47;;;9.80;99.90;;;;;;5112205;28;20166;-75
2023/05/16 03:23:49;;;;;;;12.23;3.37;;;9.70;99.90;;;;;;5113228;28;20223;-76
2023/05/16 03:26:15;;;;;;;15.40;3.60;;;9.70;99.90;;;;;;5113360;28;20181;-76
2023/05/16 03:28:40;;;;;;;20.17;3.07;;;9.50;99.90;;;;;;5113547;28;20486;-76
2023/05/16 03:31:06;;;;;;;19.23;3.53;;;9.50;99.90;;;;;;5113302;28;20177;-75
2023/05/16 03:33:31;;;;;;;8.77;2.43;;;9.40;99.90;;;;;;5111819;28;20185;-75
2023/05/16 03:35:57;;;;;;;12.13;2.90;;;9.40;99.90;;;;;;5111880;28;20181;-76
2023/05/16 03:38:23;;;;;;;13.17;2.67;;;9.30;99.90;;;;;;5113184;28;20227;-75
2023/05/16 03:40:48;;;;;;;19.33;3.13;;;9.30;99.90;;;;;;5113437;28;20618;-76
2023/05/16 03:43:14;;;;;;;15.60;2.03;;;9.30;99.90;;;;;;5112996;28;20522;-76
2023/05/16 03:45:39;;;;;;;11.13;2.67;;;9.20;99.90;;;;;;5113332;28;20243;-76
2023/05/16 03:48:05;;;;;;;16.67;2.87;;;9.10;99.90;;;;;;5112945;28;20166;-76
2023/05/16 03:50:30;;;;;;;9.77;2.37;;;9.10;99.90;;;;;;5112929;28;20591;-75
2023/05/16 03:52:56;;;;;;;13.33;3.10;;;9.10;99.90;;;;;;5113010;28;20200;-76
2023/05/16 03:55:21;;;;;;;13.13;3.17;;;9.00;99.90;;;;;;5111474;28;20563;-75
2023/05/16 03:57:48;;;;;;;14.00;2.70;;;9.00;99.90;;;;;;5112845;28;20161;-76
2023/05/16 04:00:15;;;;;;;18.00;2.73;;;9.00;99.90;;;;;;5113035;28;20166;-74
2023/05/16 04:02:41;;;;;;;14.10;3.07;;;8.90;99.90;;;;;;5112845;28;20244;-76
2023/05/16 04:05:08;;;;;;;11.33;3.13;;;8.90;99.90;;;;;;5112706;28;20268;-76
2023/05/16 04:07:35;;;;;;;11.10;3.13;;;8.90;99.90;;;;;;5112641;28;20173;-75
2023/05/16 04:10:01;;;;;;;18.20;3.10;;;9.00;99.90;;;;;;5112839;28;20165;-75
2023/05/16 04:12:26;;;;;;;21.43;3.93;;;9.00;99.90;;;;;;5111312;28;20193;-75
2023/05/16 04:14:52;;;;;;;16.97;3.57;;;8.90;99.90;;;;;;5111274;28;20660;-75
2023/05/16 04:17:17;;;;;;;13.17;3.03;;;8.90;99.90;;;;;;5112603;28;20189;-75
2023/05/16 04:19:43;;;;;;;11.83;2.80;;;8.90;99.90;;;;;;5113141;28;20176;-75
2023/05/16 04:22:08;;;;;;;12.67;2.90;;;8.80;99.90;;;;;;5111397;28;20186;-75
2023/05/16 04:24:34;;;;;;;10.53;2.83;;;8.80;99.90;;;;;;5112385;28;20239;-75
2023/05/16 04:27:00;;;;;;;11.37;2.70;;;8.80;99.90;;;;;;5112580;28;20205;-76
2023/05/16 04:29:25;;;;;;;13.10;2.53;;;8.70;99.90;;;;;;5112721;28;20248;-76
2023/05/16 04:31:51;;;;;;;10.57;2.33;;;8.70;99.90;;;;;;5112646;28;20238;-76
2023/05/16 04:34:16;;;;;;;14.97;3.00;;;8.80;99.90;;;;;;5112413;28;20189;-75
2023/05/16 04:36:42;;;;;;;14.13;3.00;;;8.80;99.90;;;;;;5112568;28;20177;-76
2023/05/16 04:39:08;;;;;;;13.33;3.23;;;8.80;99.90;;;;;;5112561;28;20173;-75
2023/05/16 04:41:34;;;;;;;13.37;2.90;;;8.80;99.90;;;;;;5112677;28;20201;-75
2023/05/16 04:44:04;;;;;;;14.80;2.90;;;8.80;99.90;;;;;;5111440;28;20514;-75
2023/05/16 04:46:30;;;;;;;16.03;3.47;;;8.80;99.90;;;;;;5112598;28;20209;-76
2023/05/16 04:48:55;;;;;;;15.97;3.20;;;8.80;99.90;;;;;;5112498;28;20205;-76
2023/05/16 04:51:21;;;;;;;15.80;2.77;;;8.70;99.90;;;;;;5112625;28;20165;-77
2023/05/16 04:53:46;;;;;;;7.93;2.20;;;8.80;99.90;;;;;;5111273;28;20193;-77
2023/05/16 04:56:12;;;;;;;7.13;2.10;;;8.80;99.90;;;;;;5113083;28;20189;-76
2023/05/16 04:58:38;;;;;;;12.83;2.40;;;8.80;99.90;;;;;;5112685;28;20162;-77
2023/05/16 05:01:03;;;;;;;15.30;2.73;;;8.80;99.90;;;;;;5112392;28;20169;-77
2023/05/16 05:03:29;;;;;;;13.93;3.47;;;8.80;99.90;;;;;;5112447;28;20672;-77
2023/05/16 05:05:55;;;;;;;18.13;3.13;;;8.80;99.90;;;;;;5112535;28;20194;-76
2023/05/16 05:08:20;;;;;;;12.00;2.93;;;8.80;99.90;;;;;;5112460;28;20665;-76
2023/05/16 05:10:46;;;;;;;10.20;2.83;;;8.70;99.90;;;;;;5112501;28;20174;-76
2023/05/16 05:13:11;;;;;;;8.20;2.40;;;8.70;99.90;;;;;;5112740;28;20654;-77
2023/05/16 05:15:37;;;;;;;11.70;2.83;;;8.70;99.90;;;;;;5112536;28;20243;-76
2023/05/16 05:18:03;;;;;;;12.10;2.60;;;8.70;99.90;;;;;;5111214;28;20174;-77
2023/05/16 05:20:29;;;;;;;10.73;3.07;;;8.70;99.90;;;;;;5114999;28;20253;-77
2023/05/16 05:22:54;;;;;;;10.73;2.40;;;8.70;99.90;;;;;;5116119;28;20189;-77
2023/05/16 05:25:20;;;;;;;15.60;2.70;;;8.70;99.90;;;;;;5116099;28;20190;-76
2023/05/16 05:27:45;;;;;;;16.33;2.57;;;8.70;99.90;;;;;;5114655;28;20594;-76
2023/05/16 05:30:11;;;;;;;12.17;2.03;;;8.70;99.90;;;;;;5112341;28;20262;-77
2023/05/16 05:32:37;;;;;;;14.60;2.30;;;8.70;99.90;;;;;;5095687;28;20229;-77
2023/05/16 05:35:03;;;;;;;14.07;2.53;;;8.60;99.90;;;;;;5094826;28;20190;-77
2023/05/16 05:37:29;;;;;;;11.30;2.10;;;8.70;99.90;;;;;;5095678;28;20546;-76
2023/05/16 05:39:55;;;;;;;16.60;2.00;;;8.80;99.90;;;;;;5095777;28;20185;-77
2023/05/16 05:42:21;;;;;;;15.83;2.50;;;8.80;99.90;;;;;;5095786;28;20170;-77
2023/05/16 05:44:46;;;;;;;14.83;2.90;;;8.80;99.90;;;;;;5094005;28;20190;-76
2023/05/16 05:47:12;;;;;;;11.40;2.43;;;8.90;99.90;;;;;;5095198;28;20174;-77
2023/05/16 05:49:38;;;;;;;12.77;2.47;;;8.90;99.90;;;;;;5095682;28;20236;-77
2023/05/16 05:52:04;;;;;;;13.10;2.10;;;8.90;99.90;;;;;;5095241;28;20190;-77
2023/05/16 05:54:30;;;;;;;13.93;2.77;;;8.90;99.90;;;;;;5095372;28;20186;-77
2023/05/16 05:56:58;;;;;;;12.80;2.57;;;9.00;99.90;;;;;;5095468;28;20173;-77
2023/05/16 05:59:24;;;;;;;8.93;2.67;;;9.10;99.90;;;;;;5094951;28;20177;-76
2023/05/16 06:01:51;;;;;;;8.20;2.50;;;9.20;99.90;;;;;;5095138;28;20174;-77
2023/05/16 06:04:20;;;;;;;11.20;2.83;;;9.30;99.90;;;;;;5095118;28;20705;-76
2023/05/16 06:06:46;;;;;;;14.53;3.30;;;9.40;99.90;;;;;;5095475;28;20181;-76
2023/05/16 06:09:13;;;;;;;14.23;2.80;;;9.50;99.90;;;;;;5095268;28;20654;-77
2023/05/16 06:11:39;;;;;;;12.10;2.47;;;9.60;99.90;;;;;;5093608;28;20265;-77
2023/05/16 06:14:05;;;;;;;9.60;2.47;;;9.70;99.90;;;;;;5093541;28;20520;-77
2023/05/16 06:16:30;;;;;;;15.90;3.83;;;9.70;99.90;;;;;;5094670;28;20170;-77
2023/05/16 06:18:56;;;;;;;17.70;2.47;;;9.80;99.90;;;;;;5095060;28;20319;-77
2023/05/16 06:21:22;;;;;;;10.87;2.20;;;9.90;99.90;;;;;;5095131;28;20181;-77
2023/05/16 06:23:47;;;;;;;13.67;2.17;;;9.90;99.90;;;;;;5094635;28;20192;-77
2023/05/16 06:26:13;;;;;;;10.60;2.60;;;10.00;99.90;;;;;;5094483;28;20198;-77
2023/05/16 06:28:38;;;;;;;12.00;2.50;;;10.00;99.90;;;;;;5095006;28;20180;-77
2023/05/16 06:31:04;;;;;;;11.50;2.80;;;10.00;99.90;;;;;;5093823;28;20252;-77
2023/05/16 06:33:30;;;;;;;10.53;2.23;;;10.00;99.90;;;;;;5093347;28;20220;-77
2023/05/16 06:35:55;;;;;;;8.33;2.40;;;10.10;99.90;;;;;;5095001;28;20186;-77
2023/05/16 06:38:21;;;;;;;10.43;2.40;;;10.10;99.90;;;;;;5095423;28;20212;-78
2023/05/16 06:40:47;;;;;;;10.90;2.30;;;10.20;99.90;;;;;;5099853;28;20170;-77
2023/05/16 06:43:12;;;;;;;13.30;2.10;;;10.30;99.90;;;;;;5097510;28;20538;-77
2023/05/16 06:45:38;;;;;;;9.07;2.20;;;10.30;99.90;;;;;;5098696;28;20186;-76
2023/05/16 06:48:06;;;;;;;10.83;2.47;;;10.40;99.90;;;;;;5096594;28;20201;-77
2023/05/16 06:50:31;;;;;;;13.53;2.77;;;10.40;99.90;;;;;;5094564;28;20166;-76
2023/05/16 06:52:57;;;;;;;10.30;2.80;;;10.50;99.90;;;;;;5094843;28;20573;-77
2023/05/16 06:55:23;;;;;;;10.20;2.63;;;10.50;99.90;;;;;;5094424;28;20236;-77
2023/05/16 06:57:48;;;;;;;14.90;3.00;;;10.50;99.90;;;;;;5094544;28;20169;-77
2023/05/16 07:00:14;;;;;;;10.40;2.50;;;10.60;99.90;;;;;;5093456;28;20171;-77
2023/05/16 07:02:40;;;;;;;7.73;2.73;;;10.60;42.00;;;;;;5094741;28;20177;-77
2023/05/16 07:05:06;;;;;;;18.20;2.80;;;10.70;1.00;;;;;;5093074;28;20587;-77
2023/05/16 07:07:32;;;;;;;10.57;2.63;;;10.80;1.00;;;;;;5094359;28;20175;-77
2023/05/16 07:09:57;;;;;;;7.13;2.27;;;10.70;1.00;;;;;;5094371;28;20280;-77
2023/05/16 07:12:23;;;;;;;10.53;2.00;;;10.80;1.00;;;;;;5093207;28;20549;-77
2023/05/16 07:14:48;;;;;;;9.73;2.20;;;10.80;1.00;;;;;;5094645;28;20242;-77
2023/05/16 07:17:15;;;;;;;6.17;1.77;;;10.80;99.90;;;;;;5094351;28;20170;-77
2023/05/16 07:19:40;;;;;;;7.30;2.00;;;10.80;99.90;;;;;;5094033;28;20192;-77
2023/05/16 07:22:06;;;;;;;7.10;1.60;;;10.80;99.90;;;;;;5094193;28;20204;-77
2023/05/16 07:24:31;;;;;;;7.30;1.70;;;10.80;99.90;;;;;;5094000;28;20190;-77
2023/05/16 07:26:57;;;;;;;12.00;2.43;;;10.80;99.90;;;;;;5093027;28;20175;-77
2023/05/16 07:29:22;;;;;;;9.60;2.10;;;10.80;99.90;;;;;;5094586;28;20237;-77
2023/05/16 07:31:48;;;;;;;6.33;1.83;;;10.80;99.90;;;;;;5094355;28;20535;-77
2023/05/16 07:34:13;;;;;;;10.73;2.77;;;10.90;99.90;;;;;;5094062;28;20205;-77
2023/05/16 07:36:39;;;;;;;8.07;1.93;;;10.90;99.90;;;;;;5094653;28;20174;-78
2023/05/16 07:39:05;;;;;;;9.70;2.20;;;10.90;99.90;;;;;;5094393;28;20295;-76
2023/05/16 07:41:31;;;;;;;8.43;2.03;;;11.10;99.90;;;;;;5094008;28;20586;-77
2023/05/16 07:43:56;;;;;;;7.63;1.70;;;11.10;99.90;;;;;;5094037;28;20249;-77
2023/05/16 07:46:22;;;;;;;11.30;2.40;;;11.20;99.90;;;;;;5093573;28;20173;-77
2023/05/16 07:48:48;;;;;;;5.83;2.50;;;11.30;99.90;;;;;;5092518;28;20178;-76
2023/05/16 07:51:13;;;;;;;8.20;2.23;;;11.40;99.90;;;;;;5093869;28;20170;-77
2023/05/16 07:53:39;;;;;;;7.53;2.00;;;11.40;99.90;;;;;;5093709;28;20619;-77
2023/05/16 07:56:05;;;;;;;4.63;1.77;;;11.50;99.90;;;;;;5093259;28;20198;-77
2023/05/16 07:58:31;;;;;;;5.83;1.90;;;11.40;99.90;;;;;;5092327;28;20178;-77
2023/05/16 08:00:57;;;;;;;6.60;1.73;;;11.40;99.90;;;;;;5093904;28;20546;-77
2023/05/16 08:03:22;;;;;;;11.53;2.73;;;11.30;99.90;;;;;;5092599;28;20614;-78
2023/05/16 08:05:48;;;;;;;10.27;2.27;;;11.20;99.90;;;;;;5092367;28;20576;-76
2023/05/16 08:08:13;;;;;;;10.47;2.53;;;11.20;99.90;;;;;;5094131;28;20202;-77
2023/05/16 08:10:39;;;;;;;10.83;2.33;;;11.20;1.00;;;;;;5094182;28;20170;-78
2023/05/16 08:13:05;;;;;;;7.10;1.93;;;11.20;99.90;;;;;;5092195;28;20225;-77
2023/05/16 08:15:31;;;;;;;12.33;2.27;;;11.30;99.90;;;;;;5092097;28;20646;-77
2023/05/16 08:17:57;;;;;;;10.43;2.10;;;11.20;99.90;;;;;;5093822;28;20657;-78
2023/05/16 08:20:24;;;;;;;10.30;2.37;;;11.20;99.90;;;;;;5093554;28;20639;-77
2023/05/16 08:22:50;;;;;;;7.93;1.87;;;11.20;99.90;;;;;;5093321;28;20188;-77
2023/05/16 08:25:17;;;;;;;7.20;2.00;;;11.20;99.90;;;;;;5093651;28;20288;-78
2023/05/16 08:27:44;;;;;;;6.17;1.30;;;11.30;99.90;;;;;;5093732;28;20178;-77
2023/05/16 08:30:10;;;;;;;4.60;1.87;;;11.40;99.90;;;;;;5093689;28;20205;-77
2023/05/16 08:32:36;;;;;;;5.70;1.47;;;11.60;99.90;;;;;;5093349;28;20190;-77
2023/05/16 08:35:02;;;;;;;10.40;1.50;;;11.60;99.90;;;;;;5093072;28;20193;-78
2023/05/16 08:37:27;;;;;;;7.90;1.73;;;11.70;99.90;;;;;;5094144;28;20170;-77
2023/05/16 08:39:53;;;;;;;13.00;2.13;;;11.70;99.90;;;;;;5093688;28;20363;-78
2023/05/16 08:42:19;;;;;;;10.00;1.50;;;11.70;99.90;;;;;;5093761;28;20178;-77
2023/05/16 08:44:44;;;;;;;2.63;1.20;;;11.80;5.40;;;;;;5093481;28;20198;-77
2023/05/16 08:47:17;;;;;;;5.90;1.27;;;11.90;1.40;;;;;;5093404;28;20185;-77
2023/05/16 08:49:46;;;;;;;8.57;1.60;;;11.90;1.00;;;;;;5093222;28;20197;-78
2023/05/16 08:52:13;;;;;;;6.70;1.37;;;11.90;79.30;;;;;;5093398;28;20194;-78
2023/05/16 08:54:39;;;;;;;6.57;1.93;;;11.90;99.90;;;;;;5094556;28;20198;-77
2023/05/16 08:57:05;;;;;;;9.60;1.67;;;12.00;44.70;;;;;;5099406;28;20162;-77
2023/05/16 08:59:31;;;;;;;8.33;1.50;;;12.10;49.20;;;;;;5102314;28;20580;-77
2023/05/16 09:01:57;;;;;;;6.30;1.60;;;12.20;1.00;;;;;;5103060;28;20186;-78
2023/05/16 09:04:24;;;;;;;9.00;1.70;;;12.40;47.10;;;;;;5097518;28;20194;-77
2023/05/16 09:06:51;;;;;;;3.97;1.00;;;12.60;1.70;;;;;;5097272;28;20630;-77
2023/05/16 09:09:16;;;;;;;8.10;1.60;;;12.60;1.00;;;;;;5097763;28;20194;-78
2023/05/16 09:11:42;;;;;;;7.97;1.97;;;12.70;7.60;;;;;;5108237;28;20312;-77
2023/05/16 09:14:08;;;;;;;4.23;1.17;;;12.50;1.00;;;;;;5103736;28;20170;-77
2023/05/16 09:16:33;;;;;;;5.30;1.43;;;12.40;1.00;;;;;;5096516;28;20257;-77
2023/05/16 09:19:00;;;;;;;7.63;1.60;;;12.40;1.00;;;;;;5096517;28;20209;-77
2023/05/16 09:21:33;;;;;;;5.20;1.10;;;12.40;1.00;;;;;;5095049;28;20175;-77
2023/05/16 09:24:07;;;;;;;9.27;1.33;;;12.50;1.00;;;;;;5095131;28;20635;-77
2023/05/16 09:26:34;;;;;;;9.07;1.27;;;12.40;1.40;;;;;;5094950;28;20357;-77
2023/05/16 09:29:00;;;;;;;6.13;1.70;;;12.50;1.00;;;;;;5095979;28;20210;-77
2023/05/16 09:31:35;;;;;;;7.67;1.73;;;12.70;92.20;;;;;;5094986;28;20182;-76
2023/05/16 09:34:00;;;;;;;5.03;1.20;;;12.80;28.10;;;;;;5094726;28;20708;-77
2023/05/16 09:36:26;;;;;;;5.57;1.33;;;12.90;1.00;;;;;;5094867;28;20170;-77
2023/05/16 09:38:52;;;;;;;7.90;1.43;;;12.90;1.00;;;;;;5096702;28;20216;-77
2023/05/16 09:41:18;;;;;;;4.17;1.03;;;13.00;1.00;;;;;;5094829;28;20178;-77
2023/05/16 09:43:44;;;;;;;4.10;1.20;;;13.10;1.00;;;;;;5096231;28;20189;-77
2023/05/16 09:46:16;;;;;;;6.30;1.00;;;13.20;1.00;;;;;;5094837;28;20723;-77
2023/05/16 09:48:47;;;;;;;8.90;1.90;;;13.20;99.90;;;;;;5094786;28;20181;-77
2023/05/16 09:51:13;;;;;;;3.67;1.30;;;13.20;1.00;;;;;;5096347;28;20173;-78
2023/05/16 09:53:40;;;;;;;4.50;1.40;;;13.20;1.00;;;;;;5094426;28;20296;-78
2023/05/16 09:56:09;;;;;;;9.67;1.50;;;13.20;1.00;;;;;;5095842;28;20190;-77
2023/05/16 09:58:36;;;;;;;9.93;1.30;;;13.20;1.00;;;;;;5095726;28;20177;-77
2023/05/16 10:01:03;;;;;;;5.57;1.53;;;13.10;1.00;;;;;;5095839;28;20175;-76
2023/05/16 10:03:29;;;;;;;4.83;1.40;;;13.10;1.00;;;;;;5094527;28;20659;-77
2023/05/16 10:05:55;;;;;;;5.03;1.50;;;13.10;1.00;;;;;;5095264;28;20201;-77
2023/05/16 10:08:22;;;;;;;4.63;1.83;;;13.00;1.00;;;;;;5096424;28;20585;-77
2023/05/16 10:10:53;;;;;;;7.67;1.90;;;13.00;1.00;;;;;;5096228;28;20174;-77
2023/05/16 10:13:25;;;;;;;11.90;2.00;;;13.00;1.00;;;;;;5094155;28;20228;-77
2023/05/16 10:15:54;;;;;;;8.37;1.40;;;13.00;1.00;;;;;;5095666;28;20689;-77
2023/05/16 10:18:21;;;;;;;6.27;1.57;;;13.20;1.00;;;;;;5094369;28;20194;-77
2023/05/16 10:20:51;;;;;;;7.97;1.47;;;13.50;9.60;;;;;;5095719;28;20200;-77
2023/05/16 10:23:18;;;;;;;5.97;1.20;;;13.70;10.50;;;;;;5095377;28;20734;-77
2023/05/16 10:25:46;;;;;;;4.43;1.10;;;13.70;1.00;;;;;;5096281;28;20328;-76
2023/05/16 10:28:13;;;;;;;6.70;1.77;;;13.70;1.00;;;;;;5095501;28;20174;-77
2023/05/16 10:30:44;;;;;;;5.57;1.50;;;13.70;1.00;;;;;;5095526;28;20185;-78
2023/05/16 10:33:12;;;;;;;7.53;1.33;;;13.60;1.00;;;;;;5095463;28;20190;-77
2023/05/16 10:35:38;;;;;;;8.53;1.60;;;13.60;1.00;;;;;;5094144;28;20671;-78
2023/05/16 10:38:06;;;;;;;5.80;1.67;;;13.50;1.00;;;;;;5094519;28;20324;-77
2023/05/16 10:40:32;;;;;;;5.20;1.50;;;13.50;1.00;;;;;;5095932;28;20198;-77
2023/05/16 10:43:01;;;;;;;5.13;1.70;;;13.40;1.00;;;;;;5093719;28;20207;-76
2023/05/16 10:45:27;;;;;;;6.60;1.50;;;13.40;1.00;;;;;;5095951;28;20279;-77
2023/05/16 10:48:00;;;;;;;4.33;1.40;;;13.30;1.00;;;;;;5096450;28;20174;-79
2023/05/16 10:50:42;;;;;;;11.00;1.53;;;13.30;1.00;;;;;;5096857;28;20162;-77
2023/05/16 10:53:31;;;;;;;2.83;1.20;;;13.30;9.00;;;;;;5097156;28;20209;-77
2023/05/16 10:56:02;;;;;;;4.17;1.07;;;13.20;1.00;;;;;;5098097;28;20186;-76
2023/05/16 10:58:37;;;;;;;5.30;1.10;;;13.30;19.80;;;;;;5097462;28;20647;-78
2023/05/16 11:01:30;;;;;;;5.33;1.50;;;13.40;12.30;;;;;;5097048;28;20166;-77
2023/05/16 11:03:59;;;;;;;6.30;1.40;;;13.50;65.60;;;;;;5096771;28;20174;-77
2023/05/16 11:06:31;;;;;;;4.60;1.47;;;13.60;1.00;;;;;;5097217;28;20178;-77
2023/05/16 11:09:09;;;;;;;4.83;1.07;;;13.70;1.00;;;;;;5098110;28;20174;-78
2023/05/16 11:11:54;;;;;;;6.63;1.13;;;13.80;1.00;;;;;;5097175;28;20220;-77
2023/05/16 11:14:25;;;;;;;3.43;1.00;;;13.80;1.00;;;;;;5106710;28;20201;-77
2023/05/16 11:17:06;;;;;;;3.27;0.90;;;14.00;1.00;;;;;;5125989;28;20679;-78
2023/05/16 11:19:42;;;;;;;2.97;1.10;;;14.10;1.00;;;;;;5124015;28;20201;-77
2023/05/16 11:22:10;;;;;;;4.10;1.20;;;14.00;1.00;;;;;;5125731;28;20197;-77
2023/05/16 11:24:38;;;;;;;4.20;1.37;;;14.00;1.00;;;;;;5123897;28;20689;-77
2023/05/16 11:27:04;;;;;;;3.20;1.00;;;14.00;1.00;;;;;;5122838;28;20177;-77
2023/05/16 11:29:34;;;;;;;3.33;1.00;;;14.10;1.00;;;;;;5123053;28;20181;-77
2023/05/16 11:32:04;;;;;;;3.47;1.10;;;14.30;1.00;;;;;;5124545;28;20221;-77
2023/05/16 11:34:34;;;;;;;3.50;1.10;;;14.20;99.90;;;;;;5117051;28;20272;-77
2023/05/16 11:37:01;;;;;;;3.50;1.40;;;14.20;1.00;;;;;;5116206;28;20260;-77
2023/05/16 11:39:26;;;;;;;2.73;1.20;;;14.10;99.90;;;;;;5108600;28;20178;-77
2023/05/16 11:41:55;;;;;;;3.97;1.37;;;14.10;1.00;;;;;;5107481;28;20193;-77
2023/05/16 11:44:20;;;;;;;1.27;0.77;;;14.00;1.00;;;;;;5113613;28;20699;-78
2023/05/16 11:46:46;;;;;;;1.37;0.67;;;13.90;1.00;;;;;;5109188;28;20260;-77
2023/05/16 11:49:12;;;;;;;3.00;1.40;;;13.90;1.00;;;;;;5098614;28;20174;-78
2023/05/16 11:51:42;;;;;;;6.73;1.40;;;13.70;3.50;;;;;;5099134;28;20614;-76
2023/05/16 11:54:12;;;;;;;5.30;1.30;;;13.50;99.90;;;;;;5112347;28;20162;-77
2023/05/16 11:56:41;;;;;;;5.43;1.40;;;13.30;99.90;;;;;;5103965;28;20172;-77
2023/05/16 11:59:07;;;;;;;5.13;1.40;;;13.10;99.90;;;;;;5114243;28;20719;-78
2023/05/16 12:01:36;;;;;;;5.90;1.40;;;13.00;99.90;;;;;;5114709;28;20192;-79
2023/05/16 12:04:06;;;;;;;3.27;1.23;;;13.00;1.00;;;;;;5115620;28;20162;-78
2023/05/16 12:06:32;;;;;;;3.70;1.47;;;13.20;1.00;;;;;;5115589;28;20181;-78
2023/05/16 12:08:57;;;;;;;2.43;1.13;;;13.30;99.90;;;;;;5114072;28;20174;-79
2023/05/16 12:11:23;;;;;;;8.23;1.60;;;13.50;99.90;;;;;;5115348;28;20186;-79
2023/05/16 12:13:49;;;;;;;3.70;1.20;;;13.50;34.50;;;;;;5115563;28;20250;-79
2023/05/16 12:16:15;;;;;;;5.07;1.10;;;13.60;1.00;;;;;;5115935;28;20230;-79
2023/05/16 12:18:41;;;;;;;7.17;1.07;;;13.60;1.00;;;;;;5114187;28;20230;-78
2023/05/16 12:21:07;;;;;;;3.43;1.40;;;13.80;1.00;;;;;;5114706;28;20173;-78
2023/05/16 12:23:33;;;;;;;6.20;1.00;;;13.90;1.00;;;;;;5114819;28;20696;-78
2023/05/16 12:26:05;;;;;;;3.40;0.73;;;14.00;1.00;;;;;;5114970;28;20238;-79
2023/05/16 12:28:35;;;;;;;2.57;0.80;;;14.00;99.90;;;;;;5115396;28;20196;-78
2023/05/16 12:31:01;;;;;;;4.10;1.07;;;14.20;1.00;;;;;;5120207;28;20170;-79
2023/05/16 12:33:26;;;;;;;2.17;0.80;;;14.30;99.90;;;;;;5119616;28;20221;-78
2023/05/16 12:35:53;;;;;;;9.77;1.20;;;14.40;99.90;;;;;;5119323;28;20245;-78
2023/05/16 12:38:19;;;;;;;4.63;1.17;;;14.50;1.00;;;;;;5119966;28;20250;-78
2023/05/16 12:40:45;;;;;;;2.97;1.03;;;14.60;99.90;;;;;;5118258;28;20171;-78
2023/05/16 12:43:18;;;;;;;2.00;0.97;;;14.70;99.90;;;;;;5119496;28;20176;-78
2023/05/16 12:45:57;;;;;;;3.27;0.70;;;14.90;99.90;;;;;;5118736;28;20189;-78
2023/05/16 12:48:28;;;;;;;3.43;0.60;;;15.00;1.00;;;;;;5118924;28;20248;-78